Time;durP1;ratioP1;P1;durP2;ratioP2;P2;SDS_P1;SDS_P2;PMS_P1;PMS_P2;Temp;Humidity;BMP_temperature;BMP_pressure;BME280_temperature;BME280_humidity;BME280_pressure;Samples;Min_cycle;Max_cycle;Signal;HPM_P1;HPM_P2
2022/09/20 00:00:25;;;;;;;4.53;1.50;;;14.30;79.30;;;;;;5074475;28;20030;-68
2022/09/20 00:02:50;;;;;;;7.85;1.48;;;14.30;79.20;;;;;;5074377;28;20053;-69
2022/09/20 00:05:16;;;;;;;6.68;1.50;;;14.30;79.20;;;;;;5075290;28;20029;-68
2022/09/20 00:07:44;;;;;;;6.38;1.85;;;14.30;79.00;;;;;;5075255;28;20030;-69
2022/09/20 00:10:10;;;;;;;9.18;2.00;;;14.30;79.20;;;;;;5075016;28;20049;-69
2022/09/20 00:12:36;;;;;;;4.90;1.40;;;14.30;79.10;;;;;;5074408;28;20039;-68
2022/09/20 00:15:02;;;;;;;4.70;1.60;;;14.30;79.20;;;;;;5074202;28;20025;-68
2022/09/20 00:17:28;;;;;;;6.55;1.88;;;14.30;79.40;;;;;;5075066;28;20047;-69
2022/09/20 00:19:53;;;;;;;4.28;1.75;;;14.30;79.50;;;;;;5075033;28;20491;-68
2022/09/20 00:22:19;;;;;;;3.95;1.45;;;14.20;79.70;;;;;;5074990;28;20055;-69
2022/09/20 00:24:46;;;;;;;5.00;1.60;;;14.20;79.70;;;;;;5073996;28;20029;-68
2022/09/20 00:27:12;;;;;;;10.13;2.22;;;14.20;79.90;;;;;;5074874;28;20013;-68
2022/09/20 00:29:37;;;;;;;9.50;1.75;;;14.20;80.00;;;;;;5074750;28;20059;-69
2022/09/20 00:32:03;;;;;;;4.55;1.45;;;14.10;80.10;;;;;;5074779;28;20033;-69
2022/09/20 00:37:13;;;;;;;6.80;1.67;;;14.10;80.20;;;;;;5074803;28;20059;-68
2022/09/20 00:39:39;;;;;;;11.63;1.83;;;14.10;80.30;;;;;;5074421;28;20025;-69
2022/09/20 00:42:05;;;;;;;12.32;1.80;;;14.10;80.10;;;;;;5074579;28;20033;-68
2022/09/20 00:44:42;;;;;;;4.18;1.50;;;14.10;80.20;;;;;;5073414;28;20029;-69
2022/09/20 00:47:52;;;;;;;5.18;1.77;;;14.20;79.90;;;;;;5074485;28;20028;-68
2022/09/20 00:50:32;;;;;;;2.95;1.38;;;14.20;79.80;;;;;;5052756;28;20026;-69
2022/09/20 00:53:12;;;;;;;4.05;1.25;;;14.20;79.70;;;;;;5052588;28;20053;-68
2022/09/20 00:55:44;;;;;;;7.57;1.67;;;14.10;79.70;;;;;;5059480;28;20029;-68
2022/09/20 00:58:11;;;;;;;3.58;1.50;;;14.10;79.70;;;;;;5074348;28;20024;-68
2022/09/20 01:00:38;;;;;;;6.35;2.08;;;14.10;80.00;;;;;;5074209;28;20091;-69
2022/09/20 01:03:08;;;;;;;4.13;1.55;;;14.00;80.10;;;;;;5074107;28;20029;-68
2022/09/20 01:05:35;;;;;;;6.57;1.70;;;14.00;80.20;;;;;;5074145;28;20013;-68
2022/09/20 01:08:01;;;;;;;1.75;1.13;;;14.00;81.10;;;;;;5073152;28;20021;-69
2022/09/20 01:10:28;;;;;;;6.47;1.60;;;14.00;80.30;;;;;;5073865;28;20049;-69
2022/09/20 01:12:53;;;;;;;7.68;1.80;;;14.00;80.30;;;;;;5074011;28;20025;-69
2022/09/20 01:15:22;;;;;;;4.45;1.77;;;14.00;80.30;;;;;;5073935;28;20071;-69
2022/09/20 01:17:50;;;;;;;7.43;1.70;;;14.00;80.30;;;;;;5073912;28;20025;-69
2022/09/20 01:20:25;;;;;;;4.32;1.95;;;14.00;80.20;;;;;;5073888;28;20021;-68
2022/09/20 01:23:06;;;;;;;5.50;2.03;;;13.90;80.40;;;;;;5073883;28;20056;-69
2022/09/20 01:26:00;;;;;;;4.80;1.90;;;13.90;80.50;;;;;;5072774;28;20025;-68
2022/09/20 01:28:27;;;;;;;6.18;1.80;;;13.90;80.60;;;;;;5072665;28;20521;-69
2022/09/20 01:31:01;;;;;;;5.63;2.25;;;13.80;80.70;;;;;;5072818;28;20029;-69
2022/09/20 01:33:59;;;;;;;6.65;2.90;;;13.80;80.90;;;;;;5073693;28;20056;-68
2022/09/20 01:36:46;;;;;;;6.03;2.10;;;13.80;80.80;;;;;;5073590;28;20029;-69
2022/09/20 01:39:30;;;;;;;5.63;2.10;;;13.80;81.00;;;;;;5072607;28;20025;-68
2022/09/20 01:42:06;;;;;;;5.70;2.40;;;13.80;81.10;;;;;;5072564;28;20052;-68
2022/09/20 01:44:50;;;;;;;6.68;2.40;;;13.70;81.30;;;;;;5073538;28;20029;-68
2022/09/20 01:47:42;;;;;;;8.30;2.75;;;13.80;81.20;;;;;;5073591;28;20025;-68
2022/09/20 01:50:19;;;;;;;6.43;2.25;;;13.80;81.40;;;;;;5072815;28;20036;-69
2022/09/20 01:53:09;;;;;;;7.00;2.28;;;13.70;81.40;;;;;;5073361;28;20024;-68
2022/09/20 01:56:04;;;;;;;10.57;3.00;;;13.70;81.50;;;;;;5073440;28;20039;-68
2022/09/20 01:58:48;;;;;;;7.93;3.00;;;13.70;81.70;;;;;;5073449;28;20063;-69
2022/09/20 02:01:38;;;;;;;7.63;2.60;;;13.70;81.90;;;;;;5073413;28;20025;-68
2022/09/20 02:04:21;;;;;;;7.18;2.35;;;13.70;81.90;;;;;;5073295;28;20033;-68
2022/09/20 02:07:04;;;;;;;6.55;2.28;;;13.70;81.90;;;;;;5073349;28;20025;-69
2022/09/20 02:09:59;;;;;;;7.95;2.90;;;13.70;82.10;;;;;;5072984;28;20103;-69
2022/09/20 02:12:44;;;;;;;6.05;2.60;;;13.60;82.10;;;;;;5073158;28;20021;-69
2022/09/20 02:15:32;;;;;;;7.72;2.67;;;13.70;82.00;;;;;;5073123;28;20033;-68
2022/09/20 02:18:17;;;;;;;6.32;2.58;;;13.70;82.00;;;;;;5073118;28;20025;-69
2022/09/20 02:21:16;;;;;;;13.02;3.22;;;13.70;82.20;;;;;;5073034;28;20028;-69
2022/09/20 02:23:47;;;;;;;5.72;2.92;;;13.60;82.30;;;;;;5072573;28;20480;-68
2022/09/20 02:26:47;;;;;;;8.10;2.78;;;13.60;82.20;;;;;;5073095;28;20024;-69
2022/09/20 02:29:38;;;;;;;6.32;2.58;;;13.70;82.10;;;;;;5073015;28;20081;-69
2022/09/20 02:32:25;;;;;;;5.53;2.60;;;13.70;82.10;;;;;;5072985;28;20024;-69
2022/09/20 02:35:18;;;;;;;6.80;2.40;;;13.60;82.20;;;;;;5072979;28;20069;-69
2022/09/20 02:37:46;;;;;;;;;;;13.70;82.00;;;;;;5073355;28;20029;-68
2022/09/20 02:40:18;;;;;;;7.32;2.85;;;13.70;81.70;;;;;;5072877;28;19905;-69
2022/09/20 02:42:52;;;;;;;9.02;2.80;;;13.60;81.80;;;;;;5073041;28;20021;-69
2022/09/20 02:45:21;;;;;;;10.43;2.67;;;13.60;81.80;;;;;;5072771;28;20057;-69
2022/09/20 02:47:48;;;;;;;7.18;2.38;;;13.60;82.00;;;;;;5072803;28;20021;-69
2022/09/20 02:50:38;;;;;;;7.32;2.40;;;13.60;81.90;;;;;;5072820;28;20037;-69
2022/09/20 02:53:21;;;;;;;5.82;2.55;;;13.60;82.10;;;;;;5072937;28;20044;-68
2022/09/20 02:56:11;;;;;;;6.53;2.40;;;13.60;82.10;;;;;;5071789;28;20025;-69
2022/09/20 02:58:52;;;;;;;6.35;2.42;;;13.60;82.20;;;;;;5072869;28;20081;-69
2022/09/20 03:01:23;;;;;;;4.63;2.17;;;13.60;82.30;;;;;;5073061;28;20123;-68
2022/09/20 03:04:17;;;;;;;5.10;2.43;;;13.60;82.30;;;;;;5075440;28;20033;-69
2022/09/20 03:06:58;;;;;;;5.88;2.50;;;13.60;82.10;;;;;;5076493;28;20380;-69
2022/09/20 03:09:30;;;;;;;8.07;2.58;;;13.60;82.30;;;;;;5076346;28;20101;-69
2022/09/20 03:12:44;;;;;;;4.30;2.42;;;13.60;82.30;;;;;;5076325;28;20017;-69
2022/09/20 03:15:26;;;;;;;9.90;2.88;;;13.60;82.30;;;;;;5071338;28;20040;-68
2022/09/20 03:18:04;;;;;;;6.40;2.75;;;13.50;82.30;;;;;;5075315;28;20083;-68
2022/09/20 03:20:36;;;;;;;6.00;2.35;;;13.50;82.40;;;;;;5076150;28;20043;-69
2022/09/20 03:23:29;;;;;;;7.10;2.80;;;13.50;82.40;;;;;;5076203;28;20037;-69
2022/09/20 03:26:41;;;;;;;6.57;2.47;;;13.50;82.60;;;;;;5076246;28;20018;-68
2022/09/20 03:29:40;;;;;;;5.45;2.35;;;13.40;82.50;;;;;;5075922;28;20028;-68
2022/09/20 03:32:23;;;;;;;5.40;2.38;;;13.50;82.60;;;;;;5075815;28;20043;-68
2022/09/20 03:35:43;;;;;;;5.78;2.67;;;13.50;82.70;;;;;;5076045;28;20036;-69
2022/09/20 03:38:34;;;;;;;5.95;2.58;;;13.50;82.60;;;;;;5054133;28;20030;-68
2022/09/20 03:41:18;;;;;;;6.97;2.80;;;13.40;82.60;;;;;;5075785;28;20040;-69
2022/09/20 03:44:07;;;;;;;4.57;2.45;;;13.40;82.70;;;;;;5075829;28;20071;-69
2022/09/20 03:46:47;;;;;;;6.88;2.53;;;13.40;82.90;;;;;;5072677;28;20033;-68
2022/09/20 03:49:37;;;;;;;5.57;2.60;;;13.40;82.90;;;;;;5075612;28;20032;-69
2022/09/20 03:52:21;;;;;;;5.75;2.78;;;13.40;82.90;;;;;;5074808;28;20056;-68
2022/09/20 03:55:08;;;;;;;10.02;2.60;;;13.40;83.00;;;;;;5075533;28;20521;-69
2022/09/20 03:57:48;;;;;;;9.38;2.92;;;13.40;82.90;;;;;;5075499;28;20025;-69
2022/09/20 04:00:37;;;;;;;5.45;2.55;;;13.50;82.80;;;;;;5075390;28;20025;-69
2022/09/20 04:03:24;;;;;;;6.82;2.63;;;13.50;82.80;;;;;;5053649;28;20056;-69
2022/09/20 04:06:09;;;;;;;4.57;2.75;;;13.40;82.80;;;;;;5075485;28;20021;-69
2022/09/20 04:08:38;;;;;;;5.53;2.28;;;13.40;82.80;;;;;;5075256;28;20013;-69
2022/09/20 04:11:30;;;;;;;4.47;2.50;;;13.40;82.90;;;;;;5075079;28;20048;-70
2022/09/20 04:14:15;;;;;;;5.65;2.35;;;13.40;82.90;;;;;;5074647;28;20032;-69
2022/09/20 04:17:12;;;;;;;5.65;2.40;;;13.40;83.00;;;;;;5074144;28;20055;-68
2022/09/20 04:19:46;;;;;;;4.47;2.53;;;13.40;82.70;;;;;;5073092;28;20040;-69
2022/09/20 04:22:12;;;;;;;4.95;2.38;;;13.50;82.70;;;;;;5075017;28;20029;-69
2022/09/20 04:24:55;;;;;;;10.77;2.80;;;13.50;82.50;;;;;;5074878;28;20039;-69
2022/09/20 04:27:29;;;;;;;7.28;2.65;;;13.40;82.50;;;;;;5075078;28;20024;-68
2022/09/20 04:29:57;;;;;;;4.90;2.13;;;13.40;82.60;;;;;;5074957;28;20039;-68
2022/09/20 04:32:41;;;;;;;4.90;1.83;;;13.40;82.60;;;;;;5074949;28;20029;-68
2022/09/20 04:38:36;;;;;;;6.60;2.20;;;13.40;82.40;;;;;;5072906;28;20096;-68
2022/09/20 04:41:50;;;;;;;6.57;2.20;;;13.30;82.40;;;;;;5074235;28;20056;-68
2022/09/20 04:44:55;;;;;;;8.00;2.10;;;13.30;82.30;;;;;;5047981;28;20100;-68
2022/09/20 04:47:41;;;;;;;4.22;2.10;;;13.30;82.40;;;;;;5040757;28;20034;-68
2022/09/20 04:50:15;;;;;;;4.75;2.08;;;13.20;82.50;;;;;;5074472;28;20063;-68
2022/09/20 04:53:05;;;;;;;3.67;2.13;;;13.20;82.50;;;;;;5074398;28;20085;-68
2022/09/20 04:55:54;;;;;;;7.68;2.20;;;13.30;82.60;;;;;;5074368;28;20029;-68
2022/09/20 04:58:23;;;;;;;6.00;1.83;;;13.30;82.40;;;;;;5074168;28;20090;-68
2022/09/20 05:01:01;;;;;;;5.90;2.30;;;13.30;82.30;;;;;;5074239;28;20029;-68
2022/09/20 05:03:42;;;;;;;5.53;2.08;;;13.30;82.40;;;;;;5074189;28;20090;-67
2022/09/20 05:06:14;;;;;;;4.63;1.90;;;13.30;82.30;;;;;;5074188;28;20025;-67
2022/09/20 05:08:52;;;;;;;4.25;1.70;;;13.40;82.10;;;;;;5073104;28;20108;-70
2022/09/20 05:11:45;;;;;;;5.05;1.73;;;13.30;82.10;;;;;;5074211;28;20041;-67
2022/09/20 05:14:33;;;;;;;5.15;2.13;;;13.30;81.90;;;;;;5073149;28;20033;-68
2022/09/20 05:17:24;;;;;;;8.70;2.03;;;13.30;81.80;;;;;;5072897;28;20035;-68
2022/09/20 05:19:54;;;;;;;5.40;1.85;;;13.30;81.70;;;;;;5073935;28;20028;-68
2022/09/20 05:22:41;;;;;;;6.95;1.75;;;13.30;81.70;;;;;;5072835;28;20029;-68
2022/09/20 05:25:19;;;;;;;5.03;2.13;;;13.20;81.90;;;;;;5073023;28;20092;-68
2022/09/20 05:27:55;;;;;;;4.90;2.05;;;13.20;82.00;;;;;;5072835;28;20025;-68
2022/09/20 05:30:29;;;;;;;7.32;1.95;;;13.20;81.80;;;;;;5073916;28;20024;-68
2022/09/20 05:33:32;;;;;;;4.10;1.70;;;13.20;81.70;;;;;;5072680;28;20021;-69
2022/09/20 05:36:26;;;;;;;3.35;1.70;;;13.20;81.60;;;;;;5072653;28;20480;-68
2022/09/20 05:39:00;;;;;;;4.07;1.60;;;13.20;81.60;;;;;;5073790;28;20017;-69
2022/09/20 05:41:51;;;;;;;4.40;1.55;;;13.20;81.40;;;;;;5073570;28;20021;-69
2022/09/20 05:44:41;;;;;;;4.38;1.67;;;13.20;81.10;;;;;;5073426;28;20024;-69
2022/09/20 05:47:25;;;;;;;5.10;1.88;;;13.10;81.20;;;;;;5073399;28;20032;-68
2022/09/20 05:50:28;;;;;;;5.13;1.95;;;13.20;81.20;;;;;;5073594;28;20111;-68
2022/09/20 05:53:01;;;;;;;6.93;1.60;;;13.20;80.90;;;;;;5073339;28;20021;-69
2022/09/20 05:55:41;;;;;;;5.70;1.77;;;13.20;80.80;;;;;;5073396;28;20028;-68
2022/09/20 05:58:44;;;;;;;4.13;1.70;;;13.20;80.80;;;;;;5073359;28;20028;-68
2022/09/20 06:01:29;;;;;;;6.28;1.60;;;13.10;80.90;;;;;;5073249;28;20025;-68
2022/09/20 06:04:21;;;;;;;6.18;1.88;;;13.00;81.20;;;;;;5073224;28;20047;-68
2022/09/20 06:06:56;;;;;;;6.63;1.80;;;13.00;81.30;;;;;;5071666;28;20033;-68
2022/09/20 06:09:21;;;;;;;4.40;1.75;;;13.00;81.30;;;;;;5073072;28;20069;-68
2022/09/20 06:12:19;;;;;;;4.53;1.77;;;13.00;81.40;;;;;;5073137;28;20127;-68
2022/09/20 06:15:00;;;;;;;5.13;1.77;;;13.00;81.50;;;;;;5061116;28;20041;-68
2022/09/20 06:17:35;;;;;;;4.28;2.00;;;12.90;81.80;;;;;;5073148;28;20043;-69
2022/09/20 06:20:22;;;;;;;4.25;1.70;;;12.90;82.10;;;;;;5073235;28;20051;-69
2022/09/20 06:22:53;;;;;;;4.38;1.88;;;12.90;82.30;;;;;;5073199;28;20032;-68
2022/09/20 06:25:24;;;;;;;8.65;1.90;;;13.00;82.50;;;;;;5072943;28;20017;-69
2022/09/20 06:27:55;;;;;;;5.78;2.10;;;13.00;82.80;;;;;;5073135;28;20021;-69
2022/09/20 06:30:24;;;;;;;7.07;2.17;;;13.00;83.10;;;;;;5072967;28;20043;-68
2022/09/20 06:32:58;;;;;;;3.92;2.13;;;13.10;83.10;;;;;;5072945;28;20041;-68
2022/09/20 06:35:57;;;;;;;7.38;2.13;;;13.20;83.10;;;;;;5073051;28;20029;-68
2022/09/20 06:41:38;;;;;;;5.80;1.90;;;13.30;83.20;;;;;;5076974;28;20032;-68
2022/09/20 06:44:04;;;;;;;4.47;2.17;;;13.40;83.50;;;;;;5059274;28;20067;-68
2022/09/20 06:46:34;;;;;;;4.35;2.20;;;13.40;83.40;;;;;;5076945;28;20021;-68
2022/09/20 06:49:01;;;;;;;6.38;1.92;;;13.50;83.70;;;;;;5076790;28;20025;-68
2022/09/20 06:51:32;;;;;;;7.57;2.17;;;13.50;83.20;;;;;;5076730;28;20017;-68
2022/09/20 06:53:58;;;;;;;7.55;2.30;;;13.60;83.40;;;;;;5076713;28;20031;-68
2022/09/20 06:56:28;;;;;;;7.45;2.15;;;13.60;83.10;;;;;;5075705;28;20025;-68
2022/09/20 06:58:54;;;;;;;6.25;1.85;;;13.70;83.00;;;;;;5076659;28;20017;-68
2022/09/20 07:01:20;;;;;;;3.05;1.63;;;13.70;82.90;;;;;;5076536;28;20040;-68
2022/09/20 07:03:46;;;;;;;5.15;1.60;;;13.80;82.90;;;;;;5075423;28;20025;-68
2022/09/20 07:06:12;;;;;;;5.50;2.00;;;13.80;82.90;;;;;;5076442;28;20032;-68
2022/09/20 07:08:37;;;;;;;5.15;2.10;;;13.80;82.50;;;;;;5076421;28;20021;-68
2022/09/20 07:11:10;;;;;;;4.82;1.95;;;13.80;82.60;;;;;;5076206;28;20484;-68
2022/09/20 07:13:36;;;;;;;6.55;2.08;;;13.90;82.60;;;;;;5076390;28;20025;-69
2022/09/20 07:16:03;;;;;;;5.82;2.40;;;13.90;82.60;;;;;;5076271;28;20364;-68
2022/09/20 07:18:30;;;;;;;5.57;1.98;;;13.90;82.60;;;;;;5076232;28;20024;-69
2022/09/20 07:20:59;;;;;;;5.18;2.08;;;14.00;82.50;;;;;;5076316;28;20036;-68
2022/09/20 07:23:26;;;;;;;3.95;2.22;;;14.00;82.40;;;;;;5076097;28;20045;-68
2022/09/20 07:25:53;;;;;;;5.53;2.60;;;14.10;82.50;;;;;;5075138;28;20017;-68
2022/09/20 07:28:22;;;;;;;7.38;2.22;;;14.20;82.10;;;;;;5075988;28;20025;-68
2022/09/20 07:30:48;;;;;;;6.72;2.10;;;14.20;81.80;;;;;;5076010;28;20029;-68
2022/09/20 07:33:19;;;;;;;6.13;2.38;;;14.20;81.90;;;;;;5075980;28;20104;-69
2022/09/20 07:35:45;;;;;;;7.65;2.10;;;14.20;81.80;;;;;;5074952;28;20017;-69
2022/09/20 07:38:12;;;;;;;5.32;2.20;;;14.30;81.80;;;;;;5075772;28;20021;-69
2022/09/20 07:40:37;;;;;;;7.20;2.20;;;14.30;81.60;;;;;;5075804;28;20090;-69
2022/09/20 07:43:03;;;;;;;5.60;2.25;;;14.50;81.60;;;;;;5074815;28;20025;-69
2022/09/20 07:45:29;;;;;;;4.40;2.13;;;14.50;81.50;;;;;;5075632;28;20115;-69
2022/09/20 07:47:57;;;;;;;4.28;1.85;;;14.60;81.40;;;;;;5073701;28;20029;-68
2022/09/20 07:50:23;;;;;;;4.05;2.25;;;14.60;81.00;;;;;;5075654;28;20083;-69
2022/09/20 07:52:49;;;;;;;4.45;2.05;;;14.70;80.70;;;;;;5075542;28;20025;-68
2022/09/20 07:55:15;;;;;;;5.30;2.10;;;14.70;80.50;;;;;;5075525;28;20052;-68
2022/09/20 07:57:41;;;;;;;4.72;2.75;;;14.80;80.10;;;;;;5075489;28;20056;-69
2022/09/20 08:00:08;;;;;;;6.03;2.40;;;14.80;79.60;;;;;;5075628;28;20071;-68
2022/09/20 08:02:35;;;;;;;4.95;2.03;;;14.90;79.80;;;;;;5075421;28;20040;-69
2022/09/20 08:05:01;;;;;;;6.07;2.22;;;15.00;79.80;;;;;;5074437;28;20053;-69
2022/09/20 08:07:28;;;;;;;5.03;1.83;;;15.10;79.60;;;;;;5074317;28;20096;-69
2022/09/20 08:09:54;;;;;;;4.90;2.03;;;15.20;78.90;;;;;;5075042;28;20041;-69
2022/09/20 08:12:19;;;;;;;4.45;1.67;;;15.30;78.30;;;;;;5075152;28;20084;-68
2022/09/20 08:14:45;;;;;;;3.78;1.60;;;15.30;77.40;;;;;;5075193;28;20032;-69
2022/09/20 08:17:11;;;;;;;6.15;1.95;;;15.30;77.50;;;;;;5074124;28;20025;-68
2022/09/20 08:19:38;;;;;;;5.68;2.15;;;15.30;77.30;;;;;;5075121;28;20029;-68
2022/09/20 08:22:05;;;;;;;5.60;1.98;;;15.40;77.40;;;;;;5075174;28;20063;-68
2022/09/20 08:24:31;;;;;;;5.07;2.08;;;15.40;77.20;;;;;;5074918;28;20029;-68
2022/09/20 08:26:58;;;;;;;5.68;1.95;;;15.40;77.10;;;;;;5074081;28;20025;-68
2022/09/20 08:29:24;;;;;;;3.13;1.90;;;15.50;77.10;;;;;;5073888;28;20017;-68
2022/09/20 08:31:51;;;;;;;4.97;2.00;;;15.50;77.20;;;;;;5073912;28;20063;-68
2022/09/20 08:34:17;;;;;;;8.55;2.30;;;15.50;76.80;;;;;;5074820;28;20047;-68
2022/09/20 08:36:45;;;;;;;4.95;2.35;;;15.50;76.80;;;;;;5074637;28;20029;-68
2022/09/20 08:39:12;;;;;;;4.22;1.75;;;15.60;76.70;;;;;;5073723;28;20021;-68
2022/09/20 08:41:40;;;;;;;5.32;1.77;;;15.60;76.40;;;;;;5074684;28;20088;-68
2022/09/20 08:44:15;;;;;;;6.15;2.00;;;15.60;75.80;;;;;;5074539;28;20055;-68
2022/09/20 08:46:46;;;;;;;6.13;1.30;;;15.70;75.80;;;;;;5074531;28;20017;-68
2022/09/20 08:49:24;;;;;;;3.30;1.30;;;15.70;75.40;;;;;;5074563;28;20013;-68
2022/09/20 08:51:50;;;;;;;4.50;1.30;;;15.80;74.90;;;;;;5074536;28;20022;-68
2022/09/20 08:54:16;;;;;;;7.80;1.67;;;15.80;74.70;;;;;;5074391;28;20021;-68
2022/09/20 08:56:44;;;;;;;5.22;1.70;;;15.80;73.90;;;;;;5074367;28;20029;-68
2022/09/20 08:59:18;;;;;;;6.28;1.70;;;15.90;73.80;;;;;;5073190;28;20032;-68
2022/09/20 09:01:48;;;;;;;3.78;1.48;;;15.90;73.50;;;;;;5074450;28;20096;-68
2022/09/20 09:04:16;;;;;;;4.38;1.20;;;16.00;73.10;;;;;;5074397;28;20025;-68
2022/09/20 09:06:42;;;;;;;8.23;1.90;;;16.00;73.20;;;;;;5074135;28;20017;-68
2022/09/20 09:09:17;;;;;;;4.22;1.13;;;16.10;73.40;;;;;;5073081;28;20033;-68
2022/09/20 09:11:44;;;;;;;6.18;1.05;;;16.20;73.20;;;;;;5074246;28;20033;-68
2022/09/20 09:17:13;;;;;;;4.15;1.13;;;16.30;71.80;;;;;;5074227;28;20039;-68
2022/09/20 09:19:44;;;;;;;4.90;1.10;;;16.30;72.10;;;;;;5073949;28;20107;-68
2022/09/20 09:22:15;;;;;;;3.50;1.00;;;16.30;71.70;;;;;;5073872;28;20029;-68
2022/09/20 09:24:40;;;;;;;5.70;1.52;;;16.30;71.90;;;;;;5072861;28;20036;-68
2022/09/20 09:27:15;;;;;;;2.47;0.95;;;16.30;71.90;;;;;;5073814;28;20029;-68
2022/09/20 09:29:49;;;;;;;2.95;1.10;;;16.20;71.80;;;;;;5073694;28;20021;-68
2022/09/20 09:32:26;;;;;;;2.00;0.73;;;16.20;71.60;;;;;;5073756;28;20021;-68
2022/09/20 09:34:51;;;;;;;2.55;1.08;;;16.10;71.20;;;;;;5073852;28;20029;-68
2022/09/20 09:37:28;;;;;;;3.03;0.75;;;16.10;71.00;;;;;;5073637;28;20029;-68
2022/09/20 09:40:09;;;;;;;1.75;0.80;;;16.00;70.20;;;;;;5073580;28;20027;-68
2022/09/20 09:42:46;;;;;;;4.13;0.95;;;16.00;70.60;;;;;;5073555;28;20029;-68
2022/09/20 09:45:25;;;;;;;6.45;1.00;;;15.90;71.00;;;;;;5073449;28;20033;-68
2022/09/20 09:47:52;;;;;;;1.95;0.90;;;15.90;71.10;;;;;;5073654;28;20021;-68
2022/09/20 09:50:29;;;;;;;5.63;1.75;;;15.90;71.50;;;;;;5073482;28;20048;-68
2022/09/20 09:53:02;;;;;;;5.30;1.38;;;15.90;71.50;;;;;;5073470;28;20025;-68
2022/09/20 09:55:39;;;;;;;5.85;0.95;;;15.80;71.60;;;;;;5073369;28;20064;-68
2022/09/20 09:58:38;;;;;;;3.10;0.60;;;15.80;71.50;;;;;;5073327;28;20029;-68
2022/09/20 10:01:09;;;;;;;2.38;0.77;;;15.70;71.10;;;;;;5072430;28;20033;-68
2022/09/20 10:03:52;;;;;;;4.40;1.00;;;15.70;71.00;;;;;;5073293;28;20021;-68
2022/09/20 10:06:32;;;;;;;3.92;0.80;;;15.70;71.50;;;;;;5073306;28;20021;-68
2022/09/20 10:09:22;;;;;;;4.43;0.73;;;15.70;71.70;;;;;;5073038;28;20028;-69
2022/09/20 10:12:20;;;;;;;2.53;0.65;;;15.70;71.50;;;;;;5071722;28;20032;-68
2022/09/20 10:15:08;;;;;;;1.33;0.40;;;15.70;71.80;;;;;;5065272;28;20086;-68
2022/09/20 10:17:59;;;;;;;3.83;0.80;;;15.70;71.90;;;;;;5073320;28;20086;-68
2022/09/20 10:20:29;;;;;;;3.53;0.75;;;15.70;72.20;;;;;;5073278;28;20040;-68
2022/09/20 10:23:12;;;;;;;4.15;1.08;;;15.70;72.80;;;;;;5073092;28;20063;-68
2022/09/20 10:25:38;;;;;;;4.00;0.77;;;15.70;73.00;;;;;;5073261;28;20038;-68
2022/09/20 10:28:22;;;;;;;2.15;0.93;;;15.70;73.00;;;;;;5072014;28;20033;-68
2022/09/20 10:31:16;;;;;;;2.60;0.65;;;15.80;72.70;;;;;;5073016;28;20035;-68
2022/09/20 10:34:01;;;;;;;4.22;0.88;;;15.80;72.80;;;;;;5072934;28;20029;-68
2022/09/20 10:36:50;;;;;;;4.30;0.60;;;15.90;73.10;;;;;;5073124;28;20045;-68
2022/09/20 10:39:27;;;;;;;2.85;0.43;;;15.90;72.60;;;;;;5072953;28;20084;-68
2022/09/20 10:45:09;;;;;;;1.70;0.50;;;15.90;72.40;;;;;;5073017;28;20043;-68
2022/09/20 10:48:08;;;;;;;2.65;0.50;;;16.00;72.20;;;;;;5069756;28;20120;-68
2022/09/20 10:50:52;;;;;;;2.47;1.02;;;16.00;72.10;;;;;;5072861;28;20021;-68
2022/09/20 10:53:24;;;;;;;2.05;0.82;;;16.00;71.70;;;;;;5072915;28;20021;-68
2022/09/20 10:56:28;;;;;;;5.28;0.90;;;16.00;70.90;;;;;;5072769;28;20013;-68
2022/09/20 10:59:18;;;;;;;1.48;0.60;;;16.00;71.00;;;;;;5072759;28;20021;-68
2022/09/20 11:02:57;;;;;;;1.90;0.65;;;16.10;71.30;;;;;;5072767;28;20099;-68
2022/09/20 11:05:36;;;;;;;1.30;0.40;;;16.10;70.90;;;;;;4991811;28;20034;-68
2022/09/20 11:08:17;;;;;;;3.05;0.50;;;16.20;71.00;;;;;;5044190;28;20192;-68
2022/09/20 11:10:51;;;;;;;1.65;0.60;;;16.20;70.70;;;;;;5067616;28;20049;-68
2022/09/20 11:13:21;;;;;;;2.65;0.60;;;16.30;70.50;;;;;;5072662;28;20063;-68
2022/09/20 11:16:07;;;;;;;3.33;0.60;;;16.40;70.30;;;;;;5072623;28;20048;-68
2022/09/20 11:18:59;;;;;;;3.42;0.52;;;16.50;70.20;;;;;;5072757;28;20067;-68
2022/09/20 11:21:45;;;;;;;0.95;0.40;;;16.80;69.40;;;;;;5072593;28;20112;-68
2022/09/20 11:24:35;;;;;;;3.75;0.60;;;16.90;69.30;;;;;;5075027;28;20036;-68
2022/09/20 11:27:19;;;;;;;0.75;0.28;;;17.00;68.30;;;;;;5076110;28;20028;-68
2022/09/20 11:30:14;;;;;;;1.98;0.73;;;17.00;67.50;;;;;;5076032;28;20032;-68
2022/09/20 11:33:17;;;;;;;2.22;0.60;;;17.10;67.60;;;;;;5076048;28;20048;-68
2022/09/20 11:35:49;;;;;;;1.10;0.50;;;17.00;66.20;;;;;;5071275;28;20033;-68
2022/09/20 11:38:31;;;;;;;;;;;17.00;66.70;;;;;;5076316;28;20067;-68
2022/09/20 11:41:20;;;;;;;3.15;0.65;;;16.90;65.90;;;;;;5074852;28;19991;-68
2022/09/20 11:43:48;;;;;;;4.38;0.73;;;16.80;63.10;;;;;;5075642;28;20021;-68
2022/09/20 11:46:51;;;;;;;2.53;0.60;;;16.80;63.40;;;;;;5075767;28;20021;-68
2022/09/20 11:49:27;;;;;;;2.88;0.50;;;16.80;62.60;;;;;;5072298;28;20447;-68
2022/09/20 11:52:12;;;;;;;0.70;0.25;;;16.80;61.90;;;;;;5074730;28;20047;-68
2022/09/20 11:55:02;;;;;;;1.90;0.52;;;16.80;62.00;;;;;;5074625;28;20392;-68
2022/09/20 11:57:28;;;;;;;4.30;0.70;;;16.80;61.90;;;;;;5075612;28;20084;-68
2022/09/20 11:59:56;;;;;;;3.40;0.40;;;16.80;62.10;;;;;;5075502;28;20028;-68
2022/09/20 12:02:42;;;;;;;2.65;0.20;;;16.80;62.70;;;;;;5075460;28;20048;-68
2022/09/20 12:05:24;;;;;;;3.13;0.32;;;16.80;61.90;;;;;;5075470;28;20125;-68
2022/09/20 12:07:54;;;;;;;1.33;0.40;;;16.90;62.50;;;;;;5075424;28;20078;-68
2022/09/20 12:10:24;;;;;;;3.30;0.40;;;16.90;62.80;;;;;;5075127;28;20048;-68
2022/09/20 12:13:05;;;;;;;2.53;0.30;;;17.00;63.20;;;;;;5075286;28;20032;-68
2022/09/20 12:15:34;;;;;;;2.03;0.52;;;17.10;63.70;;;;;;5075275;28;20052;-68
2022/09/20 12:18:14;;;;;;;2.75;0.45;;;17.20;64.00;;;;;;5075112;28;20025;-68
2022/09/20 12:20:43;;;;;;;5.28;0.65;;;17.20;63.50;;;;;;5075156;28;20025;-68
2022/09/20 12:23:37;;;;;;;3.10;0.90;;;17.20;63.20;;;;;;5074030;28;20035;-68
2022/09/20 12:26:14;;;;;;;1.08;0.60;;;17.20;62.70;;;;;;5074976;28;20037;-68
2022/09/20 12:28:51;;;;;;;1.73;0.30;;;17.20;62.20;;;;;;5074978;28;20048;-68
2022/09/20 12:31:30;;;;;;;0.73;0.40;;;17.30;62.50;;;;;;5075001;28;20035;-68
2022/09/20 12:34:12;;;;;;;0.65;0.40;;;17.30;62.40;;;;;;5074615;28;20067;-68
2022/09/20 12:36:54;;;;;;;2.15;0.60;;;17.40;62.10;;;;;;5074945;28;20104;-68
2022/09/20 12:39:26;;;;;;;2.30;0.45;;;17.30;61.40;;;;;;5074943;28;20024;-68
2022/09/20 12:42:10;;;;;;;1.77;0.30;;;17.30;61.20;;;;;;5074715;28;20017;-68
2022/09/20 12:44:57;;;;;;;0.50;0.28;;;17.40;61.70;;;;;;5074607;28;20025;-68
2022/09/20 12:47:31;;;;;;;1.52;0.20;;;17.50;60.90;;;;;;5074627;28;20024;-68
2022/09/20 12:53:02;;;;;;;5.40;1.48;;;17.70;60.40;;;;;;5074582;28;20028;-68
2022/09/20 12:55:40;;;;;;;;;;;17.70;60.10;;;;;;5074060;28;20048;-68
2022/09/20 12:58:14;;;;;;;1.48;0.45;;;17.70;60.20;;;;;;5074406;28;19911;-68
2022/09/20 13:00:47;;;;;;;2.40;0.40;;;17.70;59.50;;;;;;5074483;28;20029;-68
2022/09/20 13:03:35;;;;;;;1.52;0.30;;;17.70;60.50;;;;;;5074450;28;20029;-68
2022/09/20 13:06:13;;;;;;;3.03;0.65;;;17.80;59.50;;;;;;5073202;28;20021;-68
2022/09/20 13:09:07;;;;;;;3.55;0.77;;;17.80;59.50;;;;;;5074348;28;20024;-68
2022/09/20 13:11:42;;;;;;;1.75;0.40;;;17.90;60.40;;;;;;5074197;28;20029;-68
2022/09/20 13:14:38;;;;;;;3.03;0.52;;;17.80;59.50;;;;;;5074134;28;20048;-68
2022/09/20 13:17:29;;;;;;;0.98;0.30;;;17.90;60.20;;;;;;5073491;28;20044;-68
2022/09/20 13:19:56;;;;;;;1.85;0.45;;;17.90;59.30;;;;;;5074206;28;20043;-68
2022/09/20 13:22:24;;;;;;;4.22;0.50;;;18.00;60.00;;;;;;5073879;28;20032;-68
2022/09/20 13:24:55;;;;;;;3.05;0.50;;;18.00;59.20;;;;;;5073772;28;20044;-68
2022/09/20 13:27:33;;;;;;;1.27;0.40;;;18.00;59.10;;;;;;5073902;28;20081;-68
2022/09/20 13:30:19;;;;;;;4.95;0.82;;;18.00;58.10;;;;;;5073785;28;20062;-68
2022/09/20 13:32:46;;;;;;;3.15;0.73;;;18.00;58.00;;;;;;5073741;28;20074;-68
2022/09/20 13:35:12;;;;;;;3.03;0.60;;;18.00;58.60;;;;;;5073721;28;20036;-68
2022/09/20 13:37:54;;;;;;;3.53;0.40;;;18.00;58.40;;;;;;5073659;28;20053;-68
2022/09/20 13:40:37;;;;;;;2.60;0.40;;;18.00;58.60;;;;;;5073769;28;20542;-68
2022/09/20 13:43:05;;;;;;;1.52;0.40;;;18.10;58.10;;;;;;5073626;28;20021;-68
2022/09/20 13:45:32;;;;;;;4.35;0.60;;;18.10;57.30;;;;;;5072677;28;20025;-68
2022/09/20 13:48:00;;;;;;;1.40;0.52;;;18.00;57.60;;;;;;5073605;28;20483;-68
2022/09/20 13:50:25;;;;;;;2.97;0.43;;;18.10;58.10;;;;;;5073488;28;20020;-68
2022/09/20 13:53:00;;;;;;;3.63;0.60;;;18.10;58.20;;;;;;5073412;28;20025;-68
2022/09/20 13:55:32;;;;;;;2.60;0.50;;;18.20;58.40;;;;;;5073389;28;20032;-68
2022/09/20 13:58:28;;;;;;;1.77;0.50;;;18.30;57.70;;;;;;5073367;28;20040;-68
2022/09/20 14:01:05;;;;;;;2.05;0.52;;;18.50;58.00;;;;;;5071147;28;20029;-68